Terminal Aerodrome Forecast
Issued by NWS Austin/San Antonio, TX

Home | Current Version | Previous Version | Text Only | Print | Product List | Glossary On
Versions: 1 2 3 4 5 6 7 8 9 10 11 12
561
FTUS44 KEWX 131720
TAFAUS
TAF
KAUS 131720Z 1318/1424 16010KT P6SM SCT030
     FM140600 18007KT P6SM OVC009
     FM141700 19015G25KT P6SM SCT030=

USA.gov is the U.S. government's official web portal to all federal, state and local government web resources and services.